Time;durP1;ratioP1;P1;durP2;ratioP2;P2;SDS_P1;SDS_P2;PMS_P1;PMS_P2;Temp;Humidity;BMP_temperature;BMP_pressure;BME280_temperature;BME280_humidity;BME280_pressure;Samples;Min_cycle;Max_cycle;Signal;HPM_P1;HPM_P2
2021/06/20 00:00:29;;;;;;;8.10;5.30;;;;;;;12.28;70.65;100348.88;5015144;28;20037;-84
2021/06/20 00:02:56;;;;;;;6.18;4.10;;;;;;;12.22;70.50;100347.78;5016220;28;20030;-84
2021/06/20 00:05:46;;;;;;;5.40;3.58;;;;;;;12.12;70.45;100341.91;4997475;28;20026;-84
2021/06/20 00:08:11;;;;;;;7.60;4.10;;;;;;;12.09;70.79;100331.50;5001050;28;20075;-84
2021/06/20 00:10:38;;;;;;;7.65;4.40;;;;;;;12.11;70.95;100342.94;5020957;28;20466;-84
2021/06/20 00:13:05;;;;;;;7.50;4.20;;;;;;;12.03;70.82;100335.00;5019802;28;20068;-85
2021/06/20 00:15:31;;;;;;;7.55;4.88;;;;;;;12.04;71.50;100342.03;5001323;28;20033;-85
2021/06/20 00:17:57;;;;;;;8.02;4.70;;;;;;;11.89;71.74;100325.97;5017138;28;20033;-85
2021/06/20 00:20:26;;;;;;;6.65;4.15;;;;;;;11.88;72.24;100333.22;5020882;28;20025;-84
2021/06/20 00:22:52;;;;;;;6.18;4.65;;;;;;;11.96;72.19;100342.19;5017288;28;20139;-84
2021/06/20 00:25:17;;;;;;;5.35;3.92;;;;;;;12.01;71.81;100340.59;5011332;28;20032;-84
2021/06/20 00:27:44;;;;;;;7.97;4.40;;;;;;;11.79;72.37;100317.38;4999719;28;20033;-84
2021/06/20 00:30:12;;;;;;;8.35;4.18;;;;;;;11.91;72.01;100340.09;5020052;28;20444;-85
2021/06/20 00:32:38;;;;;;;8.35;4.65;;;;;;;11.87;72.31;100330.72;5000747;28;20029;-84
2021/06/20 00:35:05;;;;;;;6.22;4.10;;;;;;;11.89;72.45;100328.66;5014800;28;20034;-84
2021/06/20 00:37:31;;;;;;;6.75;3.88;;;;;;;11.78;72.96;100332.69;4997054;28;20034;-84
2021/06/20 00:39:56;;;;;;;5.75;4.20;;;;;;;11.61;73.13;100331.28;5018948;28;20041;-85
2021/06/20 00:42:21;;;;;;;10.25;4.53;;;;;;;11.55;73.90;100337.44;5023866;28;20064;-84
2021/06/20 00:44:49;;;;;;;8.25;5.53;;;;;;;11.46;73.52;100339.44;4999221;28;20029;-84
2021/06/20 00:47:16;;;;;;;5.85;4.57;;;;;;;11.34;73.64;100325.66;4992899;28;20061;-84
2021/06/20 00:49:42;;;;;;;7.57;5.40;;;;;;;11.43;73.53;100335.28;5035009;28;20087;-84
2021/06/20 00:52:08;;;;;;;9.60;6.43;;;;;;;11.34;74.13;100341.78;4998149;28;20030;-85
2021/06/20 00:54:33;;;;;;;20.77;14.23;;;;;;;11.28;74.05;100334.50;4990046;28;20040;-84
2021/06/20 00:56:59;;;;;;;14.82;9.65;;;;;;;11.37;73.98;100341.41;4999492;28;20028;-85
2021/06/20 00:59:24;;;;;;;10.13;7.00;;;;;;;11.24;74.35;100319.75;5014124;28;20026;-84
2021/06/20 01:01:50;;;;;;;19.40;13.95;;;;;;;11.36;74.69;100336.22;5016616;28;20083;-84
2021/06/20 01:04:15;;;;;;;17.85;11.27;;;;;;;11.42;74.96;100338.97;5001812;28;20093;-84
2021/06/20 01:06:41;;;;;;;13.20;9.05;;;;;;;11.38;74.83;100326.13;5030556;28;20087;-84
2021/06/20 01:09:06;;;;;;;14.43;9.90;;;;;;;11.33;74.98;100315.09;5001908;28;20504;-85
2021/06/20 01:11:33;;;;;;;11.98;8.40;;;;;;;11.45;75.09;100337.75;4999311;28;20486;-85
2021/06/20 01:13:59;;;;;;;11.20;6.93;;;;;;;11.48;75.05;100336.53;5001570;28;20105;-85
2021/06/20 01:16:28;;;;;;;8.43;5.90;;;;;;;11.47;74.88;100330.34;5004371;28;20156;-85
2021/06/20 01:18:54;;;;;;;7.00;4.70;;;;;;;11.49;74.65;100322.06;5011056;28;20099;-84
2021/06/20 01:21:20;;;;;;;9.57;4.90;;;;;;;11.48;74.92;100326.59;4995278;28;20029;-84
2021/06/20 01:23:45;;;;;;;8.20;4.38;;;;;;;11.37;74.60;100314.50;4993201;28;20040;-85
2021/06/20 01:26:11;;;;;;;8.82;3.92;;;;;;;11.35;74.46;100310.31;5009018;28;20044;-84
2021/06/20 01:28:50;;;;;;;6.95;4.22;;;;;;;11.43;74.86;100329.91;4992599;28;20470;-85
2021/06/20 01:31:17;;;;;;;6.85;3.85;;;;;;;11.43;74.89;100327.19;5002567;28;20033;-85
2021/06/20 01:33:42;;;;;;;7.30;3.80;;;;;;;11.30;75.30;100305.53;4993084;28;20367;-84
2021/06/20 01:36:09;;;;;;;6.70;3.85;;;;;;;11.41;74.97;100318.47;4992308;28;20031;-85
2021/06/20 01:38:34;;;;;;;10.10;4.07;;;;;;;11.43;75.05;100313.75;5006369;28;20030;-85
2021/06/20 01:41:00;;;;;;;7.60;4.35;;;;;;;11.45;75.04;100317.06;5010929;28;20029;-85
2021/06/20 01:43:25;;;;;;;8.30;4.30;;;;;;;11.30;75.05;100291.22;4995769;28;20104;-85
2021/06/20 01:45:51;;;;;;;5.38;3.97;;;;;;;11.42;74.98;100309.38;4998312;28;20017;-85
2021/06/20 01:48:16;;;;;;;7.90;4.03;;;;;;;11.40;74.92;100303.34;4997167;28;20017;-85
2021/06/20 01:50:41;;;;;;;8.82;4.00;;;;;;;11.32;75.02;100300.78;5004470;28;20032;-85
2021/06/20 01:53:10;;;;;;;7.35;4.22;;;;;;;11.16;75.07;100274.13;5021677;28;20493;-85
2021/06/20 01:55:37;;;;;;;9.65;4.30;;;;;;;11.21;75.38;100298.59;4992562;28;20124;-85
2021/06/20 01:58:06;;;;;;;6.68;4.00;;;;;;;11.12;75.20;100289.00;5008305;28;20079;-84
2021/06/20 02:00:33;;;;;;;9.95;4.57;;;;;;;11.13;75.51;100294.16;5013437;28;20544;-84
2021/06/20 02:03:08;;;;;;;8.02;4.38;;;;;;;11.11;75.58;100292.69;5011831;28;20111;-84
2021/06/20 02:05:34;;;;;;;7.07;5.90;;;;;;;11.08;75.52;100290.38;5008703;28;20061;-85
2021/06/20 02:07:59;;;;;;;6.78;4.63;;;;;;;11.09;76.04;100294.75;5008744;28;20111;-85
2021/06/20 02:10:24;;;;;;;8.85;3.72;;;;;;;11.08;76.11;100298.44;4988231;28;20393;-85
2021/06/20 02:12:51;;;;;;;6.30;3.72;;;;;;;10.92;76.27;100283.38;5010294;28;20030;-85
2021/06/20 02:15:17;;;;;;;6.03;3.85;;;;;;;11.06;76.30;100292.41;4994689;28;20032;-84
2021/06/20 02:17:44;;;;;;;6.60;3.88;;;;;;;10.99;75.87;100279.75;5008398;28;20029;-85
2021/06/20 02:20:12;;;;;;;6.13;3.90;;;;;;;11.20;75.89;100305.00;5009508;28;20861;-85
2021/06/20 02:22:39;;;;;;;7.13;4.00;;;;;;;11.20;75.76;100296.94;5011579;28;20037;-84
2021/06/20 02:25:06;;;;;;;8.25;3.78;;;;;;;11.22;75.45;100289.50;4996102;28;20041;-84
2021/06/20 02:27:31;;;;;;;5.82;3.55;;;;;;;11.37;75.42;100308.28;4996653;28;20029;-83
2021/06/20 02:29:57;;;;;;;6.97;3.65;;;;;;;11.37;75.22;100295.66;4992615;28;20310;-84
2021/06/20 02:32:24;;;;;;;8.55;3.72;;;;;;;11.41;75.08;100286.19;4998559;28;20095;-84
2021/06/20 02:34:49;;;;;;;8.40;4.25;;;;;;;11.53;74.86;100296.41;5002743;28;20021;-84
2021/06/20 02:37:16;;;;;;;8.27;4.20;;;;;;;11.54;74.75;100308.88;4996208;28;20511;-84
2021/06/20 02:39:42;;;;;;;6.90;3.47;;;;;;;11.37;74.87;100268.72;5002561;28;20037;-84
2021/06/20 02:42:08;;;;;;;7.32;3.65;;;;;;;11.57;74.82;100297.72;4992543;28;20036;-84
2021/06/20 02:44:34;;;;;;;7.35;3.83;;;;;;;11.66;74.95;100307.31;5007807;28;20121;-84
2021/06/20 02:47:01;;;;;;;7.72;3.30;;;;;;;11.72;74.86;100311.91;5003285;28;20079;-84
2021/06/20 02:49:28;;;;;;;8.23;3.80;;;;;;;11.63;74.89;100292.38;5012520;28;20033;-84
2021/06/20 02:51:54;;;;;;;7.32;3.78;;;;;;;11.62;74.96;100289.88;5004573;28;20092;-84
2021/06/20 02:54:20;;;;;;;7.80;4.30;;;;;;;11.69;75.29;100303.38;5028506;28;20052;-84
2021/06/20 02:56:46;;;;;;;8.38;3.72;;;;;;;11.70;75.79;100305.91;5002585;28;20051;-85
2021/06/20 02:59:11;;;;;;;9.30;4.18;;;;;;;11.59;76.06;100291.09;5002010;28;20021;-85
2021/06/20 03:01:37;;;;;;;5.00;3.42;;;;;;;11.62;76.34;100284.50;5021950;28;20040;-83
2021/06/20 03:04:02;;;;;;;6.43;3.47;;;;;;;11.70;76.30;100308.59;5007228;28;20034;-83
2021/06/20 03:06:28;;;;;;;6.88;4.65;;;;;;;11.74;76.55;100309.03;5015324;28;20081;-85
2021/06/20 03:08:54;;;;;;;7.35;3.45;;;;;;;11.56;76.78;100280.69;5003482;28;20038;-84
2021/06/20 03:11:19;;;;;;;6.05;4.10;;;;;;;11.56;76.66;100266.41;5018009;28;20030;-86
2021/06/20 03:13:46;;;;;;;8.30;3.67;;;;;;;11.77;77.04;100300.56;5013220;28;20035;-86
2021/06/20 03:16:13;;;;;;;7.28;4.78;;;;;;;11.65;77.23;100289.50;5000131;28;20490;-86
2021/06/20 03:18:38;;;;;;;7.53;4.35;;;;;;;11.49;77.82;100263.69;5013151;28;20124;-85
2021/06/20 03:21:04;;;;;;;5.65;4.07;;;;;;;11.42;77.88;100252.00;5014967;28;20045;-85
2021/06/20 03:23:29;;;;;;;8.27;4.22;;;;;;;11.76;78.00;100298.91;5018005;28;20030;-84
2021/06/20 03:25:54;;;;;;;8.00;4.40;;;;;;;11.62;78.21;100273.72;5016367;28;20098;-85
2021/06/20 03:28:20;;;;;;;7.72;4.47;;;;;;;11.63;78.21;100268.13;5013521;28;20536;-84
2021/06/20 03:30:45;;;;;;;7.10;4.07;;;;;;;11.87;78.19;100306.47;5018251;28;20034;-86
2021/06/20 03:33:11;;;;;;;8.57;4.28;;;;;;;11.82;78.01;100303.50;5000395;28;20112;-85
2021/06/20 03:35:36;;;;;;;7.15;4.25;;;;;;;11.86;78.41;100311.03;5004773;28;20037;-85
2021/06/20 03:38:02;;;;;;;6.85;4.07;;;;;;;11.93;78.45;100313.75;4998955;28;20029;-83
2021/06/20 03:40:27;;;;;;;6.85;4.30;;;;;;;11.87;78.78;100307.31;5015726;28;20365;-84
2021/06/20 03:42:53;;;;;;;9.63;4.47;;;;;;;11.94;78.60;100311.94;5012069;28;20029;-85
2021/06/20 03:45:18;;;;;;;10.95;4.70;;;;;;;11.65;78.58;100266.09;4996239;28;20032;-85
2021/06/20 03:47:44;;;;;;;9.07;4.43;;;;;;;11.84;79.09;100291.50;5015398;28;20041;-85
2021/06/20 03:50:10;;;;;;;8.25;4.65;;;;;;;11.81;79.19;100291.91;5013995;28;20125;-86
2021/06/20 03:52:36;;;;;;;7.43;4.30;;;;;;;11.97;78.98;100319.63;5023588;28;20052;-86
2021/06/20 03:55:03;;;;;;;8.93;4.43;;;;;;;11.75;79.53;100292.69;5021602;28;20667;-85
2021/06/20 03:57:28;;;;;;;8.27;4.65;;;;;;;11.95;79.36;100321.66;5016040;28;20068;-85
2021/06/20 03:59:53;;;;;;;7.95;4.63;;;;;;;11.90;79.82;100314.16;5008218;28;20526;-85
2021/06/20 04:02:19;;;;;;;9.30;4.60;;;;;;;11.90;79.81;100310.63;5031080;28;20032;-86
2021/06/20 04:04:45;;;;;;;7.75;4.25;;;;;;;12.01;80.20;100326.25;5001150;28;20022;-85
2021/06/20 04:07:11;;;;;;;9.30;4.47;;;;;;;12.02;80.00;100327.94;5017100;28;20021;-86
2021/06/20 04:09:44;;;;;;;7.93;4.93;;;;;;;12.04;80.31;100333.94;5017777;28;20081;-85
2021/06/20 04:12:13;;;;;;;6.00;4.22;;;;;;;12.03;80.23;100326.91;5015730;28;20021;-85
2021/06/20 04:14:41;;;;;;;7.82;4.55;;;;;;;12.08;80.23;100333.38;5032612;28;20382;-86
2021/06/20 04:17:07;;;;;;;9.77;4.38;;;;;;;12.04;80.10;100332.13;5002567;28;20409;-85
2021/06/20 04:19:33;;;;;;;9.25;4.75;;;;;;;11.86;80.11;100308.34;4992424;28;20568;-86
2021/06/20 04:21:58;;;;;;;8.65;5.18;;;;;;;11.95;80.28;100321.66;5002831;28;20029;-86
2021/06/20 04:24:23;;;;;;;10.10;4.50;;;;;;;11.95;80.39;100327.06;4999486;28;20056;-86
2021/06/20 04:26:50;;;;;;;8.00;5.63;;;;;;;11.84;80.60;100313.06;4994920;28;20049;-86
2021/06/20 04:29:15;;;;;;;7.38;5.25;;;;;;;11.97;80.33;100336.59;5014810;28;20053;-85
2021/06/20 04:31:41;;;;;;;10.15;6.40;;;;;;;11.93;80.98;100337.19;5017084;28;20272;-84
2021/06/20 04:34:07;;;;;;;9.68;5.70;;;;;;;11.99;80.86;100349.91;5015827;28;20025;-85
2021/06/20 04:36:33;;;;;;;8.32;4.75;;;;;;;11.94;80.96;100339.69;5015823;28;20033;-85
2021/06/20 04:38:58;;;;;;;9.68;5.13;;;;;;;11.91;80.53;100341.94;4998979;28;20022;-85
2021/06/20 04:41:24;;;;;;;8.18;5.60;;;;;;;12.05;80.97;100358.03;4998128;28;20064;-83
2021/06/20 04:46:33;;;;;;;8.43;5.03;;;;;;;12.03;81.15;100340.38;5013252;28;20021;-84
2021/06/20 04:49:19;;;;;;;11.43;6.13;;;;;;;12.05;81.37;100343.72;5000921;28;20791;-84
2021/06/20 04:51:44;;;;;;;9.15;6.00;;;;;;;12.04;81.16;100339.34;4991112;28;20038;-86
2021/06/20 04:54:11;;;;;;;11.73;5.35;;;;;;;12.03;81.40;100329.59;4999987;28;20040;-86
2021/06/20 04:56:37;;;;;;;9.93;5.50;;;;;;;12.09;81.26;100340.44;5015713;28;20489;-84
2021/06/20 04:59:03;;;;;;;9.40;5.72;;;;;;;12.00;81.42;100319.22;5014342;28;20113;-85
2021/06/20 05:01:28;;;;;;;7.55;5.75;;;;;;;12.00;81.66;100309.28;5033611;28;20067;-84
2021/06/20 05:03:55;;;;;;;9.10;5.97;;;;;;;12.27;81.40;100350.72;5015998;28;20078;-85
2021/06/20 05:06:21;;;;;;;9.65;5.90;;;;;;;12.14;81.53;100322.84;5000089;28;20490;-86
2021/06/20 05:08:46;;;;;;;8.52;5.43;;;;;;;12.14;81.21;100322.84;5029996;28;20037;-84
2021/06/20 05:11:12;;;;;;;8.38;5.28;;;;;;;12.22;81.23;100333.47;5015981;28;20500;-86
2021/06/20 05:13:37;;;;;;;9.30;5.68;;;;;;;12.27;81.33;100339.94;4994690;28;20032;-84
2021/06/20 05:16:03;;;;;;;11.77;5.93;;;;;;;12.17;81.31;100322.44;5020185;28;20485;-84
2021/06/20 05:18:29;;;;;;;7.82;5.93;;;;;;;12.40;81.13;100363.44;4999816;28;20080;-85
2021/06/20 05:20:55;;;;;;;9.48;6.07;;;;;;;12.44;81.28;100372.00;5008898;28;20022;-85
2021/06/20 05:23:21;;;;;;;10.80;6.60;;;;;;;12.41;81.74;100353.50;5030665;28;20393;-85
2021/06/20 05:25:47;;;;;;;12.63;6.72;;;;;;;12.30;81.64;100336.88;5012568;28;20026;-85
2021/06/20 05:28:12;;;;;;;11.00;6.32;;;;;;;12.33;81.40;100341.00;4995374;28;20025;-84
2021/06/20 05:30:38;;;;;;;13.00;6.70;;;;;;;12.39;81.77;100347.50;5015426;28;20112;-85
2021/06/20 05:33:04;;;;;;;10.05;6.95;;;;;;;12.39;81.40;100334.84;4998789;28;20040;-84
2021/06/20 05:35:29;;;;;;;10.45;6.20;;;;;;;12.52;81.75;100350.25;5031588;28;20021;-84
2021/06/20 05:37:55;;;;;;;10.10;6.78;;;;;;;12.57;81.43;100364.00;5012098;28;20036;-84
2021/06/20 05:40:21;;;;;;;14.23;7.10;;;;;;;12.42;81.31;100339.81;5014619;28;20021;-86
2021/06/20 05:42:46;;;;;;;11.68;6.15;;;;;;;12.57;81.45;100369.38;4998136;28;20393;-85
2021/06/20 05:45:12;;;;;;;8.38;6.13;;;;;;;12.62;81.42;100372.31;5010634;28;20087;-84
2021/06/20 05:47:37;;;;;;;9.82;6.70;;;;;;;12.38;81.60;100337.72;4995949;28;20029;-85
2021/06/20 05:50:04;;;;;;;11.45;6.93;;;;;;;12.34;81.43;100333.75;5017157;28;20021;-85
2021/06/20 05:52:29;;;;;;;13.05;6.28;;;;;;;12.55;81.23;100366.03;5003230;28;20021;-85
2021/06/20 05:54:55;;;;;;;11.07;6.40;;;;;;;12.62;81.99;100393.91;5000941;28;20032;-84
2021/06/20 05:57:21;;;;;;;13.80;6.97;;;;;;;12.62;81.93;100379.56;5027314;28;20433;-85
2021/06/20 05:59:48;;;;;;;10.68;6.50;;;;;;;12.72;81.58;100394.34;5020023;28;20029;-84
2021/06/20 06:02:14;;;;;;;12.73;7.47;;;;;;;12.67;81.50;100388.72;5019219;28;20025;-84
2021/06/20 06:04:42;;;;;;;10.48;6.00;;;;;;;12.74;81.92;100396.84;5037310;28;20072;-83
2021/06/20 06:07:08;;;;;;;10.35;6.43;;;;;;;12.72;81.63;100390.81;5003743;28;20060;-84
2021/06/20 06:09:35;;;;;;;15.27;7.30;;;;;;;12.79;81.59;100404.38;5016225;28;20398;-83
2021/06/20 06:12:05;;;;;;;12.55;6.28;;;;;;;12.78;81.47;100398.16;5013736;28;20525;-83
2021/06/20 06:14:30;;;;;;;11.80;6.97;;;;;;;12.81;81.47;100399.56;4996520;28;20029;-83
2021/06/20 06:16:56;;;;;;;11.32;6.45;;;;;;;12.84;81.47;100393.81;5000337;28;20962;-84
2021/06/20 06:19:21;;;;;;;9.02;6.80;;;;;;;12.72;81.76;100374.63;4998266;28;20030;-85
2021/06/20 06:21:47;;;;;;;10.48;6.68;;;;;;;12.90;81.55;100399.22;5010592;28;20025;-85
2021/06/20 06:24:12;;;;;;;11.57;6.78;;;;;;;12.94;81.46;100403.19;5000270;28;20032;-85
2021/06/20 06:26:38;;;;;;;9.05;6.50;;;;;;;12.98;81.40;100409.03;5019602;28;20029;-86
2021/06/20 06:29:04;;;;;;;11.20;6.63;;;;;;;13.05;81.23;100406.38;4994605;28;20140;-76
2021/06/20 06:31:31;;;;;;;9.70;6.20;;;;;;;13.08;81.65;100406.78;5007925;28;20506;-84
2021/06/20 06:33:57;;;;;;;13.02;6.22;;;;;;;13.07;81.48;100402.44;5014033;28;20032;-84
2021/06/20 06:36:22;;;;;;;11.57;7.07;;;;;;;13.11;81.37;100411.78;4997030;28;20104;-85
2021/06/20 06:38:48;;;;;;;7.68;6.00;;;;;;;13.09;81.30;100405.75;4995357;28;20116;-85
2021/06/20 06:41:17;;;;;;;11.38;6.38;;;;;;;13.09;81.33;100411.16;5014868;28;20482;-84
2021/06/20 06:43:43;;;;;;;8.88;6.43;;;;;;;13.10;81.64;100410.13;5005757;28;20032;-84
2021/06/20 06:46:08;;;;;;;10.93;6.82;;;;;;;13.18;81.18;100422.63;5013851;28;20036;-86
2021/06/20 06:48:34;;;;;;;12.82;7.05;;;;;;;13.19;81.28;100414.31;4993173;28;20030;-84
2021/06/20 06:50:59;;;;;;;11.18;7.38;;;;;;;13.30;81.20;100431.00;4990474;28;20393;-83
2021/06/20 06:53:25;;;;;;;10.20;6.95;;;;;;;13.26;80.83;100416.19;5012636;28;20107;-85
2021/06/20 06:55:50;;;;;;;8.77;5.88;;;;;;;13.33;81.12;100417.91;4996362;28;20026;-85
2021/06/20 06:58:15;;;;;;;11.40;6.72;;;;;;;13.43;80.65;100430.22;4997777;28;20041;-84
2021/06/20 07:00:41;;;;;;;9.95;6.90;;;;;;;13.43;80.83;100416.72;4999398;28;20036;-86
2021/06/20 07:03:06;;;;;;;9.00;6.15;;;;;;;13.37;81.00;100400.28;4994316;28;20074;-86
2021/06/20 07:05:32;;;;;;;9.70;6.47;;;;;;;13.50;80.74;100412.19;4992164;28;20025;-84
2021/06/20 07:07:58;;;;;;;10.65;6.47;;;;;;;13.63;80.81;100421.16;5001706;28;20037;-84
2021/06/20 07:10:23;;;;;;;9.90;6.22;;;;;;;13.68;80.59;100422.38;5011738;28;20028;-82
2021/06/20 07:12:49;;;;;;;10.38;6.78;;;;;;;13.80;80.33;100426.16;5006339;28;20025;-81
2021/06/20 07:15:15;;;;;;;11.55;6.80;;;;;;;13.82;80.37;100418.69;5005084;28;20488;-80
2021/06/20 07:17:40;;;;;;;11.88;6.90;;;;;;;13.85;80.04;100405.59;5018614;28;20041;-80
2021/06/20 07:20:10;;;;;;;8.85;6.32;;;;;;;14.07;79.66;100424.31;4997487;28;20033;-79
2021/06/20 07:22:37;;;;;;;8.85;6.07;;;;;;;14.18;79.01;100417.47;4994300;28;20030;-81
2021/06/20 07:25:03;;;;;;;11.65;7.18;;;;;;;14.25;78.70;100415.59;4992141;28;20034;-80
2021/06/20 07:27:29;;;;;;;8.85;6.80;;;;;;;14.37;78.31;100419.34;5012323;28;20492;-81
2021/06/20 07:29:54;;;;;;;9.20;6.28;;;;;;;14.50;77.80;100424.75;5013399;28;20477;-80
2021/06/20 07:32:20;;;;;;;11.75;6.40;;;;;;;14.65;77.78;100426.41;4950471;28;20035;-80
2021/06/20 07:34:45;;;;;;;10.57;6.20;;;;;;;14.73;77.49;100420.78;4959555;28;20023;-81
2021/06/20 07:37:10;;;;;;;10.13;6.72;;;;;;;14.81;76.97;100422.44;4973225;28;20034;-79
2021/06/20 07:39:36;;;;;;;10.48;6.40;;;;;;;14.78;77.06;100412.03;4982531;28;20057;-81
2021/06/20 07:42:02;;;;;;;10.18;6.43;;;;;;;14.90;77.12;100424.69;4957413;28;20483;-80
2021/06/20 07:44:27;;;;;;;10.50;6.65;;;;;;;14.99;76.81;100429.88;4948296;28;20038;-81
2021/06/20 07:46:53;;;;;;;9.50;6.50;;;;;;;15.06;76.65;100433.41;4988553;28;20026;-79
2021/06/20 07:49:18;;;;;;;10.93;6.30;;;;;;;15.04;76.71;100435.50;4978205;28;20488;-81
2021/06/20 07:51:44;;;;;;;9.27;6.45;;;;;;;15.07;76.82;100438.59;4976508;28;20026;-81
2021/06/20 07:54:10;;;;;;;8.38;6.32;;;;;;;15.06;76.82;100431.53;4992920;28;20937;-80
2021/06/20 07:56:35;;;;;;;9.52;6.32;;;;;;;15.11;76.09;100428.16;4985185;28;20030;-79
2021/06/20 07:59:00;;;;;;;8.18;6.03;;;;;;;15.12;76.15;100430.66;4967509;28;20023;-81
2021/06/20 08:01:26;;;;;;;8.93;6.10;;;;;;;15.15;75.99;100437.53;4982969;28;20061;-81
2021/06/20 08:03:52;;;;;;;9.32;6.05;;;;;;;15.15;75.65;100432.13;4962250;28;20373;-81
2021/06/20 08:06:17;;;;;;;10.27;7.05;;;;;;;15.11;75.91;100420.03;4981931;28;20442;-81
2021/06/20 08:08:43;;;;;;;7.65;5.78;;;;;;;15.11;76.05;100420.88;4959076;28;20036;-80
2021/06/20 08:11:08;;;;;;;8.10;5.65;;;;;;;15.15;76.17;100432.13;4975059;28;20038;-81
2021/06/20 08:13:33;;;;;;;7.18;6.18;;;;;;;15.11;76.32;100420.88;4972608;28;20034;-81
2021/06/20 08:15:59;;;;;;;6.38;5.10;;;;;;;15.15;75.72;100435.66;4993326;28;20050;-80
2021/06/20 08:18:24;;;;;;;7.00;5.20;;;;;;;15.10;75.53;100431.91;4965265;28;20034;-81
2021/06/20 08:20:50;;;;;;;5.90;4.60;;;;;;;15.07;75.65;100440.47;4991848;28;20030;-80
2021/06/20 08:23:15;;;;;;;8.32;4.82;;;;;;;14.99;75.57;100428.00;4955751;28;20506;-81
2021/06/20 08:25:41;;;;;;;6.95;5.18;;;;;;;15.03;75.72;100433.81;4986280;28;20054;-81
2021/06/20 08:28:06;;;;;;;9.00;6.10;;;;;;;15.00;75.25;100440.47;4984839;28;20039;-81
2021/06/20 08:30:32;;;;;;;7.85;5.20;;;;;;;14.97;75.17;100440.91;4978261;28;20034;-81
2021/06/20 08:32:59;;;;;;;9.52;5.20;;;;;;;14.98;75.32;100437.19;4960115;28;20027;-81
2021/06/20 08:35:24;;;;;;;6.38;4.78;;;;;;;14.95;74.85;100441.13;4981447;28;20406;-81
2021/06/20 08:37:49;;;;;;;7.47;5.10;;;;;;;14.98;74.92;100444.44;4992757;28;20027;-81
2021/06/20 08:40:15;;;;;;;10.07;5.45;;;;;;;15.00;75.06;100439.66;4980546;28;20035;-82
2021/06/20 08:42:41;;;;;;;8.38;5.55;;;;;;;15.02;75.02;100445.69;4964463;28;20030;-81
2021/06/20 08:45:07;;;;;;;5.72;4.95;;;;;;;15.02;75.13;100453.81;4973302;28;20031;-80
2021/06/20 08:47:36;;;;;;;7.57;5.53;;;;;;;15.04;75.18;100452.56;4979464;28;20027;-81
2021/06/20 08:50:02;;;;;;;6.43;5.07;;;;;;;15.11;75.25;100447.97;4981844;28;20488;-81
2021/06/20 08:52:29;;;;;;;7.85;5.13;;;;;;;15.13;75.35;100453.16;4971908;28;20419;-80
2021/06/20 08:55:00;;;;;;;9.68;5.70;;;;;;;15.17;75.61;100446.28;4971607;28;20038;-80
2021/06/20 08:57:33;;;;;;;9.38;5.93;;;;;;;15.21;75.74;100444.78;4958116;28;20031;-80
2021/06/20 08:59:59;;;;;;;8.40;5.95;;;;;;;15.22;75.52;100454.59;4972202;28;20034;-80
2021/06/20 09:02:26;;;;;;;8.00;6.22;;;;;;;15.15;75.68;100449.19;4959855;28;20105;-81
2021/06/20 09:04:57;;;;;;;8.27;6.10;;;;;;;15.18;75.74;100443.34;4956450;28;20042;-80
2021/06/20 09:07:34;;;;;;;10.77;6.20;;;;;;;15.24;75.62;100447.09;4973524;28;20027;-82
2021/06/20 09:10:11;;;;;;;8.02;6.03;;;;;;;15.28;75.91;100453.72;4950920;28;20122;-79
2021/06/20 09:12:43;;;;;;;8.95;5.60;;;;;;;15.36;76.05;100450.78;4971821;28;20022;-81
2021/06/20 09:15:09;;;;;;;8.52;5.90;;;;;;;15.36;75.78;100450.78;4982780;28;20026;-83
2021/06/20 09:17:35;;;;;;;8.00;5.60;;;;;;;15.41;75.47;100469.09;4971924;28;20088;-84
2021/06/20 09:20:04;;;;;;;8.35;5.40;;;;;;;15.34;75.93;100463.69;4960821;28;20023;-85
2021/06/20 09:22:29;;;;;;;7.28;5.80;;;;;;;15.31;75.98;100449.75;4959299;28;20402;-84
2021/06/20 09:25:08;;;;;;;8.95;6.10;;;;;;;15.44;75.73;100467.84;4981038;28;20019;-84
2021/06/20 09:27:34;;;;;;;8.10;5.88;;;;;;;15.45;75.47;100454.06;4975078;28;20050;-84
2021/06/20 09:30:14;;;;;;;6.18;5.30;;;;;;;15.54;75.47;100457.38;4959184;28;20037;-83
2021/06/20 09:32:51;;;;;;;6.47;5.35;;;;;;;15.63;75.12;100456.06;4967981;28;20029;-83
2021/06/20 09:35:16;;;;;;;9.18;5.63;;;;;;;15.65;75.00;100459.41;4974322;28;20034;-83
2021/06/20 09:37:52;;;;;;;10.45;6.40;;;;;;;15.73;74.33;100453.75;4976715;28;20022;-84
2021/06/20 09:40:18;;;;;;;8.55;6.13;;;;;;;15.67;73.45;100446.47;4975420;28;20036;-85
2021/06/20 09:42:44;;;;;;;6.35;5.57;;;;;;;15.64;72.62;100435.22;4977994;28;20030;-84
2021/06/20 09:45:10;;;;;;;7.88;5.25;;;;;;;15.78;72.54;100450.41;4957883;28;20041;-83
2021/06/20 09:47:40;;;;;;;8.77;5.80;;;;;;;15.91;72.29;100452.22;4975408;28;20029;-85
2021/06/20 09:50:07;;;;;;;6.57;5.70;;;;;;;15.96;71.81;100441.53;4960970;28;20045;-84
2021/06/20 09:52:35;;;;;;;8.82;4.80;;;;;;;16.03;70.84;100439.59;4971128;28;20396;-85
2021/06/20 09:55:12;;;;;;;6.18;4.93;;;;;;;16.25;70.37;100450.94;4976626;28;20033;-84
2021/06/20 09:57:39;;;;;;;6.35;4.70;;;;;;;16.36;69.78;100452.09;4956060;28;20029;-85
2021/06/20 10:00:06;;;;;;;6.50;5.00;;;;;;;16.44;69.78;100440.94;4980296;28;20038;-84
2021/06/20 10:02:34;;;;;;;6.45;4.80;;;;;;;16.60;68.24;100451.25;4987266;28;20058;-83
2021/06/20 10:04:59;;;;;;;6.55;4.60;;;;;;;16.63;67.72;100444.53;4975901;28;20034;-85
2021/06/20 10:07:26;;;;;;;6.40;4.60;;;;;;;16.82;67.01;100453.56;4987440;28;20097;-84
2021/06/20 10:09:53;;;;;;;6.82;4.75;;;;;;;17.00;67.03;100444.63;4960972;28;20073;-82
2021/06/20 10:12:19;;;;;;;6.63;5.10;;;;;;;17.07;65.72;100438.06;4973751;28;20050;-85
2021/06/20 10:14:45;;;;;;;6.65;4.82;;;;;;;17.25;65.00;100437.22;4939636;28;20031;-85
2021/06/20 10:17:12;;;;;;;7.38;4.60;;;;;;;17.36;64.82;100438.34;4963978;28;20026;-84
2021/06/20 10:19:42;;;;;;;4.95;4.30;;;;;;;17.46;64.40;100419.56;4957726;28;20037;-83
2021/06/20 10:22:10;;;;;;;6.78;4.55;;;;;;;17.61;64.58;100435.50;4960452;28;20018;-84
2021/06/20 10:24:47;;;;;;;8.15;4.68;;;;;;;17.69;63.83;100443.31;4956736;28;20076;-84
2021/06/20 10:27:34;;;;;;;6.57;4.40;;;;;;;17.87;63.85;100447.91;4988785;28;20027;-84
2021/06/20 10:30:04;;;;;;;8.98;4.22;;;;;;;18.04;63.72;100447.25;4988575;28;20030;-84
2021/06/20 10:32:36;;;;;;;4.75;3.72;;;;;;;18.08;63.10;100459.34;4973161;28;20026;-83
2021/06/20 10:35:03;;;;;;;11.32;4.22;;;;;;;18.08;62.82;100464.78;4988959;28;20109;-78
2021/06/20 10:37:33;;;;;;;5.93;4.22;;;;;;;18.10;62.60;100454.47;4978335;28;20081;-77
2021/06/20 10:40:01;;;;;;;6.10;4.07;;;;;;;18.15;62.33;100457.31;4963015;28;20041;-79
2021/06/20 10:42:37;;;;;;;4.75;4.07;;;;;;;18.19;63.02;100451.19;4983261;28;20064;-79
2021/06/20 10:45:07;;;;;;;4.85;4.18;;;;;;;18.20;62.62;100463.72;4983564;28;20093;-79
2021/06/20 10:47:43;;;;;;;5.35;4.38;;;;;;;18.28;62.73;100469.91;4988725;28;20561;-78
2021/06/20 10:50:14;;;;;;;5.72;4.43;;;;;;;18.33;62.23;100461.88;4979914;28;20023;-78
2021/06/20 10:52:43;;;;;;;5.30;4.35;;;;;;;18.39;62.77;100472.66;4984224;28;20030;-78
2021/06/20 10:55:15;;;;;;;5.43;3.95;;;;;;;18.50;62.54;100476.47;4977271;28;20037;-79
2021/06/20 10:58:01;;;;;;;4.22;3.83;;;;;;;18.55;61.89;100481.19;4973230;28;20109;-79
2021/06/20 11:00:29;;;;;;;5.43;4.57;;;;;;;18.58;62.09;100475.28;4973455;28;20574;-78
2021/06/20 11:02:55;;;;;;;6.18;4.50;;;;;;;18.57;61.78;100476.34;4957129;28;20030;-78
2021/06/20 11:05:22;;;;;;;4.93;4.03;;;;;;;18.60;62.04;100479.44;4953664;28;20042;-79
2021/06/20 11:07:48;;;;;;;4.43;3.92;;;;;;;18.64;62.04;100477.88;4969371;28;20022;-78
2021/06/20 11:10:22;;;;;;;5.22;3.97;;;;;;;18.71;62.19;100482.38;4978398;28;20088;-79
2021/06/20 11:12:53;;;;;;;;;;;;;;;18.78;61.38;100483.94;4976494;28;20034;-79
2021/06/20 11:15:26;;;;;;;5.88;4.20;;;;;;;18.75;61.42;100483.59;4976088;28;19949;-80
2021/06/20 11:17:51;;;;;;;;;;;;;;;18.71;61.64;100487.81;4977423;28;20030;-80
2021/06/20 11:20:17;;;;;;;5.25;4.15;;;;;;;18.72;61.94;100490.31;4995251;28;19920;-78
2021/06/20 11:22:42;;;;;;;5.72;4.63;;;;;;;18.75;62.22;100487.16;4994550;28;20070;-79
2021/06/20 11:25:08;;;;;;;4.93;4.43;;;;;;;18.89;62.11;100496.75;4993855;28;20429;-79